Time;durP1;ratioP1;P1;durP2;ratioP2;P2;SDS_P1;SDS_P2;PMS_P1;PMS_P2;Temp;Humidity;BMP_temperature;BMP_pressure;BME280_temperature;BME280_humidity;BME280_pressure;Samples;Min_cycle;Max_cycle;Signal;HPM_P1;HPM_P2
2021/04/10 00:00:08;;;;;;;20.50;13.95;;;9.30;65.20;;;;;;5045894;28;20036;-73
2021/04/10 00:02:34;;;;;;;19.45;13.50;;;9.30;65.30;;;;;;5036459;28;20033;-72
2021/04/10 00:05:00;;;;;;;17.42;12.90;;;9.30;65.00;;;;;;5048059;28;20130;-72
2021/04/10 00:07:25;;;;;;;17.65;12.90;;;9.20;65.00;;;;;;5045432;28;20027;-72
2021/04/10 00:09:51;;;;;;;19.20;12.80;;;9.20;64.70;;;;;;5041132;28;20059;-76
2021/04/10 00:12:17;;;;;;;16.23;12.15;;;9.20;64.50;;;;;;5033572;28;20057;-72
2021/04/10 00:14:42;;;;;;;17.30;11.48;;;9.20;64.20;;;;;;5045717;28;20029;-72
2021/04/10 00:17:08;;;;;;;14.93;11.05;;;9.20;64.40;;;;;;5042226;28;20041;-73
2021/04/10 00:19:34;;;;;;;15.98;11.10;;;9.20;64.30;;;;;;5044239;28;20029;-72
2021/04/10 00:22:00;;;;;;;16.73;11.77;;;9.20;63.90;;;;;;5043485;28;20062;-72
2021/04/10 00:24:26;;;;;;;18.60;11.25;;;9.20;63.90;;;;;;5040476;28;20506;-74
2021/04/10 00:26:52;;;;;;;13.27;10.48;;;9.10;64.10;;;;;;5065839;28;20060;-73
2021/04/10 00:29:17;;;;;;;17.08;10.63;;;9.10;64.30;;;;;;5064065;28;20028;-72
2021/04/10 00:31:43;;;;;;;14.82;10.38;;;9.10;64.50;;;;;;5061695;28;20048;-73
2021/04/10 00:34:09;;;;;;;13.52;10.27;;;9.10;64.60;;;;;;5055518;28;20028;-74
2021/04/10 00:36:34;;;;;;;16.23;10.55;;;9.10;64.70;;;;;;5067453;28;20027;-73
2021/04/10 00:39:00;;;;;;;11.68;9.45;;;9.00;64.80;;;;;;5064884;28;20116;-72
2021/04/10 00:41:26;;;;;;;15.90;11.43;;;9.10;64.90;;;;;;5063232;28;20505;-72
2021/04/10 00:43:51;;;;;;;16.45;11.10;;;9.00;65.20;;;;;;5060029;28;20029;-72
2021/04/10 00:46:17;;;;;;;16.92;11.13;;;9.00;65.40;;;;;;5064767;28;20070;-71
2021/04/10 00:48:43;;;;;;;13.10;10.13;;;9.00;65.40;;;;;;5062491;28;20041;-72
2021/04/10 00:51:09;;;;;;;14.55;9.93;;;9.00;65.50;;;;;;5062689;28;20482;-72
2021/04/10 00:53:36;;;;;;;14.75;10.50;;;8.90;65.50;;;;;;5058803;28;20112;-73
2021/04/10 00:56:05;;;;;;;15.52;9.48;;;8.90;65.60;;;;;;5064122;28;20017;-73
2021/04/10 00:58:32;;;;;;;14.68;10.13;;;8.90;65.70;;;;;;5063732;28;20029;-76
2021/04/10 01:00:58;;;;;;;14.20;9.48;;;8.90;65.40;;;;;;5065329;28;20040;-74
2021/04/10 01:03:24;;;;;;;13.75;10.32;;;8.90;65.50;;;;;;5063710;28;20377;-73
2021/04/10 01:05:49;;;;;;;14.40;10.13;;;8.90;65.50;;;;;;5064888;28;20047;-72
2021/04/10 01:08:16;;;;;;;14.45;9.55;;;8.90;65.40;;;;;;5065609;28;20409;-72
2021/04/10 01:10:41;;;;;;;13.40;10.00;;;8.90;65.60;;;;;;5064437;28;20379;-72
2021/04/10 01:13:25;;;;;;;15.35;9.60;;;8.90;65.90;;;;;;5065293;28;20036;-75
2021/04/10 01:16:05;;;;;;;12.93;8.90;;;8.90;66.00;;;;;;5065063;28;20090;-72
2021/04/10 01:18:43;;;;;;;12.52;8.02;;;8.80;66.10;;;;;;5051974;28;20033;-72
2021/04/10 01:21:17;;;;;;;13.63;8.55;;;8.90;66.40;;;;;;5060566;28;20051;-72
2021/04/10 01:24:20;;;;;;;15.65;8.80;;;8.80;66.70;;;;;;5058448;28;20025;-72
2021/04/10 01:27:08;;;;;;;16.77;8.45;;;8.70;67.00;;;;;;5054834;28;20039;-72
2021/04/10 01:29:51;;;;;;;11.43;8.27;;;8.70;67.10;;;;;;5059776;28;20403;-72
2021/04/10 01:32:17;;;;;;;14.68;9.18;;;8.80;67.60;;;;;;5038691;28;20033;-73
2021/04/10 01:34:53;;;;;;;13.30;9.32;;;8.80;67.50;;;;;;5045212;28;20033;-70
2021/04/10 01:37:24;;;;;;;13.02;8.80;;;8.70;68.10;;;;;;5046181;28;20086;-72
2021/04/10 01:39:50;;;;;;;12.57;8.45;;;8.70;68.30;;;;;;5047738;28;20033;-72
2021/04/10 01:42:20;;;;;;;14.93;9.32;;;8.70;68.50;;;;;;5043580;28;20037;-77
2021/04/10 01:44:46;;;;;;;14.90;9.55;;;8.70;68.60;;;;;;5051815;28;20028;-72
2021/04/10 01:47:15;;;;;;;16.80;10.38;;;8.60;68.90;;;;;;5039625;28;20049;-72
2021/04/10 01:49:41;;;;;;;16.20;11.38;;;8.60;69.40;;;;;;5055000;28;20051;-80
2021/04/10 01:52:08;;;;;;;16.65;11.57;;;8.60;69.80;;;;;;5053315;28;20048;-73
2021/04/10 01:54:35;;;;;;;18.95;11.48;;;8.50;70.60;;;;;;5050812;28;20025;-72
2021/04/10 01:57:01;;;;;;;19.08;12.40;;;8.40;71.00;;;;;;5060509;28;20094;-73
2021/04/10 01:59:28;;;;;;;20.38;12.80;;;8.50;71.10;;;;;;5041264;28;20028;-72
2021/04/10 02:01:55;;;;;;;20.90;13.63;;;8.50;71.20;;;;;;5053238;28;20543;-73
2021/04/10 02:04:21;;;;;;;22.48;13.52;;;8.50;71.80;;;;;;5043230;28;20036;-72
2021/04/10 02:06:48;;;;;;;19.48;12.65;;;8.50;71.90;;;;;;5058659;28;20379;-75
2021/04/10 02:09:14;;;;;;;23.35;14.25;;;8.40;72.20;;;;;;5052162;28;20040;-73
2021/04/10 02:11:47;;;;;;;21.92;14.40;;;8.40;72.70;;;;;;5070085;28;20029;-72
2021/04/10 02:14:14;;;;;;;23.55;15.38;;;8.30;73.10;;;;;;5065917;28;20020;-72
2021/04/10 02:16:41;;;;;;;22.75;16.10;;;8.20;73.50;;;;;;5060379;28;20025;-72
2021/04/10 02:19:08;;;;;;;23.40;15.65;;;8.20;73.80;;;;;;5072633;28;20028;-72
2021/04/10 02:21:40;;;;;;;23.10;16.27;;;8.40;73.50;;;;;;5071475;28;20359;-72
2021/04/10 02:24:10;;;;;;;25.75;16.92;;;8.30;73.70;;;;;;5074305;28;20489;-73
2021/04/10 02:26:36;;;;;;;26.35;16.85;;;8.30;74.00;;;;;;5057607;28;20123;-71
2021/04/10 02:29:02;;;;;;;27.17;17.40;;;8.30;74.20;;;;;;5047662;28;20178;-73
2021/04/10 02:31:29;;;;;;;27.38;18.20;;;8.30;74.20;;;;;;5040934;28;20098;-73
2021/04/10 02:34:03;;;;;;;27.58;17.73;;;8.30;74.40;;;;;;5054826;28;20027;-74
2021/04/10 02:36:30;;;;;;;30.23;18.73;;;8.40;74.30;;;;;;5064821;28;20444;-73
2021/04/10 02:38:57;;;;;;;29.58;20.13;;;8.40;74.50;;;;;;5068705;28;20158;-72
2021/04/10 02:41:27;;;;;;;31.45;20.75;;;8.40;74.60;;;;;;5059655;28;20102;-72
2021/04/10 02:43:56;;;;;;;29.58;19.65;;;8.30;75.10;;;;;;5069473;28;20037;-72
2021/04/10 02:46:26;;;;;;;30.45;20.08;;;8.40;75.20;;;;;;5064558;28;20187;-73
2021/04/10 02:48:58;;;;;;;31.60;20.90;;;8.30;75.50;;;;;;5051548;28;20051;-72
2021/04/10 02:51:35;;;;;;;32.92;21.92;;;8.30;75.90;;;;;;5040767;28;20467;-72
2021/04/10 02:54:03;;;;;;;34.03;21.20;;;8.20;76.20;;;;;;5065643;28;20025;-73
2021/04/10 02:56:31;;;;;;;33.70;21.08;;;8.30;76.40;;;;;;5064769;28;20037;-73
2021/04/10 02:58:59;;;;;;;35.47;22.30;;;8.20;76.80;;;;;;5067299;28;20696;-80
2021/04/10 03:01:28;;;;;;;31.52;21.60;;;8.20;77.10;;;;;;5038557;28;20057;-72
2021/04/10 03:03:54;;;;;;;36.17;22.50;;;8.10;77.60;;;;;;5046143;28;20365;-72
2021/04/10 03:06:20;;;;;;;34.33;22.52;;;8.10;77.90;;;;;;5058079;28;20032;-72
2021/04/10 03:08:47;;;;;;;36.22;22.95;;;8.20;77.90;;;;;;5042732;28;20033;-78
2021/04/10 03:11:15;;;;;;;34.30;22.90;;;8.10;78.30;;;;;;5047135;28;20033;-73
2021/04/10 03:13:40;;;;;;;36.45;22.00;;;8.10;78.40;;;;;;5045511;28;20119;-72
2021/04/10 03:16:06;;;;;;;33.47;23.75;;;8.10;78.60;;;;;;5040359;28;20573;-79
2021/04/10 03:18:32;;;;;;;39.92;25.17;;;8.10;78.80;;;;;;5045426;28;20036;-73
2021/04/10 03:21:01;;;;;;;40.17;24.58;;;8.00;79.40;;;;;;5045412;28;20464;-72
2021/04/10 03:23:27;;;;;;;39.97;24.00;;;7.90;79.80;;;;;;5031058;28;20409;-72
2021/04/10 03:25:53;;;;;;;42.42;25.95;;;7.90;80.00;;;;;;5057136;28;20029;-73
2021/04/10 03:28:19;;;;;;;38.67;25.88;;;7.90;80.20;;;;;;5066855;28;20035;-73
2021/04/10 03:30:47;;;;;;;40.42;25.13;;;7.90;80.30;;;;;;5067139;28;20068;-73
2021/04/10 03:33:13;;;;;;;43.13;26.17;;;7.90;80.40;;;;;;5067469;28;20052;-72
2021/04/10 03:35:39;;;;;;;40.90;25.45;;;7.90;80.50;;;;;;5067326;28;20579;-72
2021/04/10 03:38:05;;;;;;;42.17;25.17;;;8.00;80.40;;;;;;5048734;28;20041;-73
2021/04/10 03:40:31;;;;;;;45.22;26.48;;;8.00;80.60;;;;;;5044587;28;20037;-73
2021/04/10 03:42:57;;;;;;;44.97;25.90;;;7.90;80.90;;;;;;5054553;28;20456;-73
2021/04/10 03:45:23;;;;;;;43.95;27.33;;;7.80;81.30;;;;;;5060725;28;20048;-72
2021/04/10 03:47:50;;;;;;;45.25;28.60;;;7.90;81.30;;;;;;5044903;28;20029;-73
2021/04/10 03:50:16;;;;;;;49.60;28.05;;;7.80;81.60;;;;;;5040805;28;20034;-74
2021/04/10 03:52:42;;;;;;;42.75;27.80;;;7.80;81.70;;;;;;5045750;28;20359;-73
2021/04/10 03:55:10;;;;;;;47.42;28.92;;;7.80;82.00;;;;;;5042803;28;20075;-74
2021/04/10 03:57:35;;;;;;;44.80;29.15;;;7.80;82.00;;;;;;5044348;28;20368;-72
2021/04/10 04:00:04;;;;;;;47.53;28.25;;;7.90;81.80;;;;;;5045757;28;20041;-73
2021/04/10 04:02:30;;;;;;;44.30;27.67;;;7.90;81.80;;;;;;5043735;28;20025;-73
2021/04/10 04:04:55;;;;;;;42.65;28.40;;;7.80;82.00;;;;;;5046028;28;20083;-73
2021/04/10 04:07:21;;;;;;;49.90;31.58;;;7.80;82.20;;;;;;5037446;28;20036;-73
2021/04/10 04:09:47;;;;;;;49.58;30.25;;;7.80;82.40;;;;;;5041784;28;20036;-72
2021/04/10 04:12:13;;;;;;;47.65;29.60;;;7.80;82.40;;;;;;5044745;28;20067;-72
2021/04/10 04:14:39;;;;;;;45.60;29.77;;;7.80;82.50;;;;;;5036266;28;20029;-73
2021/04/10 04:17:06;;;;;;;48.28;31.42;;;7.80;82.30;;;;;;5032271;28;20030;-72
2021/04/10 04:19:32;;;;;;;50.28;32.60;;;7.80;82.60;;;;;;5043551;28;20091;-72
2021/04/10 04:21:59;;;;;;;49.63;33.30;;;7.80;82.40;;;;;;5040522;28;20372;-72
2021/04/10 04:24:25;;;;;;;47.92;31.00;;;7.80;82.40;;;;;;5043150;28;20056;-72
2021/04/10 04:26:50;;;;;;;51.42;32.35;;;7.80;82.30;;;;;;5045091;28;20444;-72
2021/04/10 04:29:16;;;;;;;50.53;33.13;;;7.70;82.40;;;;;;5030509;28;20075;-73
2021/04/10 04:31:42;;;;;;;52.95;34.20;;;7.70;82.50;;;;;;5045012;28;20036;-72
2021/04/10 04:34:08;;;;;;;47.15;32.30;;;7.70;82.70;;;;;;5043053;28;20111;-72
2021/04/10 04:36:34;;;;;;;54.67;33.17;;;7.70;82.60;;;;;;5041587;28;20121;-72
2021/04/10 04:38:59;;;;;;;53.33;32.75;;;7.70;82.70;;;;;;5037333;28;21165;-72
2021/04/10 04:41:25;;;;;;;49.30;32.30;;;7.60;82.70;;;;;;5039999;28;20033;-75
2021/04/10 04:43:51;;;;;;;51.30;31.77;;;7.60;82.80;;;;;;5040795;28;20556;-74
2021/04/10 04:46:16;;;;;;;47.50;32.13;;;7.60;83.00;;;;;;5038646;28;20030;-72
2021/04/10 04:48:42;;;;;;;48.53;32.30;;;7.60;83.10;;;;;;5034552;28;20455;-77
2021/04/10 04:51:08;;;;;;;51.63;32.00;;;7.60;83.00;;;;;;5038844;28;20102;-72
2021/04/10 04:53:34;;;;;;;46.97;31.73;;;7.60;83.00;;;;;;5044675;28;20484;-72
2021/04/10 04:55:59;;;;;;;53.33;31.70;;;7.60;82.70;;;;;;5042235;28;20030;-74
2021/04/10 04:58:25;;;;;;;48.03;30.75;;;7.60;82.70;;;;;;5037462;28;20353;-72
2021/04/10 05:00:51;;;;;;;49.88;30.50;;;7.60;82.70;;;;;;5044768;28;20040;-84
2021/04/10 05:03:16;;;;;;;48.15;30.08;;;7.60;82.60;;;;;;5040441;28;20026;-73
2021/04/10 05:05:42;;;;;;;45.05;28.88;;;7.60;82.70;;;;;;5034437;28;20033;-73
2021/04/10 05:08:08;;;;;;;47.63;30.73;;;7.60;82.70;;;;;;5035738;28;20461;-72
2021/04/10 05:10:34;;;;;;;46.97;30.40;;;7.50;82.80;;;;;;5040891;28;20045;-72
2021/04/10 05:12:59;;;;;;;46.80;30.50;;;7.50;83.00;;;;;;5047213;28;20025;-73
2021/04/10 05:15:25;;;;;;;47.22;30.35;;;7.50;83.10;;;;;;5041181;28;20024;-72
2021/04/10 05:17:51;;;;;;;44.38;28.63;;;7.50;83.20;;;;;;5041371;28;20497;-72
2021/04/10 05:20:17;;;;;;;40.63;28.48;;;7.50;83.10;;;;;;5037545;28;20048;-79
2021/04/10 05:22:42;;;;;;;40.97;27.00;;;7.50;82.90;;;;;;5045176;28;20555;-74
2021/04/10 05:25:09;;;;;;;45.28;28.35;;;7.50;82.50;;;;;;5031166;28;20033;-73
2021/04/10 05:27:34;;;;;;;41.92;27.45;;;7.50;82.50;;;;;;5046270;28;20469;-74
2021/04/10 05:30:00;;;;;;;44.08;27.70;;;7.60;82.40;;;;;;5039796;28;20068;-73
2021/04/10 05:32:26;;;;;;;47.03;28.15;;;7.60;82.20;;;;;;5037490;28;20519;-74
2021/04/10 05:34:54;;;;;;;39.88;26.35;;;7.60;81.80;;;;;;5031724;28;20120;-72
2021/04/10 05:37:20;;;;;;;43.92;29.30;;;7.70;81.50;;;;;;5045021;28;20021;-73
2021/04/10 05:39:46;;;;;;;39.88;25.90;;;7.60;81.60;;;;;;5050991;28;20048;-71
2021/04/10 05:42:12;;;;;;;40.15;26.48;;;7.60;81.50;;;;;;5050577;28;20476;-68
2021/04/10 05:44:38;;;;;;;42.70;26.35;;;7.60;81.70;;;;;;5076902;28;20032;-67
2021/04/10 05:47:04;;;;;;;39.22;26.27;;;7.70;81.70;;;;;;5046579;28;20032;-69
2021/04/10 05:49:29;;;;;;;44.15;25.80;;;7.80;81.50;;;;;;5050559;28;20422;-70
2021/04/10 05:51:55;;;;;;;40.20;25.35;;;7.90;81.20;;;;;;5066710;28;20206;-69
2021/04/10 05:54:21;;;;;;;41.63;24.63;;;7.90;80.70;;;;;;5047704;28;20029;-68
2021/04/10 05:56:46;;;;;;;33.88;23.52;;;8.00;80.40;;;;;;5046936;28;20033;-68
2021/04/10 05:59:12;;;;;;;37.60;23.52;;;8.00;80.10;;;;;;5040004;28;20025;-68
2021/04/10 06:01:38;;;;;;;39.92;23.42;;;8.00;79.90;;;;;;5046625;28;20025;-67
2021/04/10 06:04:04;;;;;;;38.30;23.70;;;8.00;79.80;;;;;;5041109;28;20036;-67
2021/04/10 06:06:30;;;;;;;34.75;22.42;;;8.00;79.90;;;;;;5050975;28;20029;-72
2021/04/10 06:08:55;;;;;;;39.53;23.20;;;8.00;79.60;;;;;;5047951;28;20442;-68
2021/04/10 06:11:21;;;;;;;36.60;23.00;;;8.00;79.60;;;;;;5045967;28;20123;-69
2021/04/10 06:13:47;;;;;;;32.75;21.40;;;7.90;79.40;;;;;;5042587;28;20018;-69
2021/04/10 06:16:12;;;;;;;35.83;22.17;;;7.70;79.90;;;;;;5046286;28;20030;-68
2021/04/10 06:18:38;;;;;;;36.35;22.63;;;7.70;80.10;;;;;;5046602;28;20025;-70
2021/04/10 06:21:05;;;;;;;39.58;22.23;;;7.70;80.20;;;;;;5044768;28;20037;-68
2021/04/10 06:23:31;;;;;;;40.95;23.63;;;7.50;80.60;;;;;;5040124;28;20075;-69
2021/04/10 06:25:56;;;;;;;36.20;22.58;;;7.60;80.80;;;;;;5048799;28;20456;-69
2021/04/10 06:28:22;;;;;;;35.63;22.15;;;7.60;80.80;;;;;;5047519;28;20029;-68
2021/04/10 06:30:48;;;;;;;37.30;22.58;;;7.60;80.50;;;;;;5040369;28;20025;-68
2021/04/10 06:33:14;;;;;;;34.17;21.45;;;7.60;80.30;;;;;;5046744;28;20170;-68
2021/04/10 06:35:39;;;;;;;34.17;20.73;;;7.60;80.60;;;;;;5047670;28;20021;-68
2021/04/10 06:38:05;;;;;;;34.72;21.92;;;7.70;80.40;;;;;;5048211;28;20021;-69
2021/04/10 06:40:31;;;;;;;34.72;21.05;;;7.70;80.40;;;;;;5049724;28;20052;-68
2021/04/10 06:43:01;;;;;;;34.35;20.00;;;7.70;80.10;;;;;;5048063;28;20021;-68
2021/04/10 06:45:27;;;;;;;33.88;21.20;;;7.60;80.40;;;;;;5053391;28;20504;-68
2021/04/10 06:47:54;;;;;;;32.10;20.42;;;7.70;80.60;;;;;;5068738;28;20028;-68
2021/04/10 06:50:20;;;;;;;33.40;21.15;;;7.60;80.80;;;;;;5047364;28;20033;-68
2021/04/10 06:52:48;;;;;;;33.83;20.00;;;7.70;80.90;;;;;;5064928;28;20028;-69
2021/04/10 06:55:16;;;;;;;31.02;20.48;;;7.70;80.80;;;;;;5054046;28;20484;-68
2021/04/10 06:57:56;;;;;;;32.90;20.42;;;7.70;81.10;;;;;;5064150;28;20024;-69
2021/04/10 07:00:23;;;;;;;32.90;18.77;;;7.80;80.60;;;;;;5060720;28;20481;-70
2021/04/10 07:02:49;;;;;;;38.22;19.98;;;7.90;81.00;;;;;;5055046;28;20024;-68
2021/04/10 07:05:15;;;;;;;31.23;20.15;;;7.90;80.70;;;;;;5064594;28;20371;-67
2021/04/10 07:07:44;;;;;;;33.28;21.10;;;8.00;80.60;;;;;;5068241;28;20119;-70
2021/04/10 07:10:13;;;;;;;35.03;20.30;;;8.10;80.50;;;;;;5057631;28;20452;-71
2021/04/10 07:12:40;;;;;;;35.38;20.48;;;8.20;80.50;;;;;;5055361;28;20027;-68
2021/04/10 07:15:10;;;;;;;29.63;19.13;;;8.10;80.60;;;;;;5060287;28;20044;-70
2021/04/10 07:17:36;;;;;;;30.00;18.40;;;8.10;80.40;;;;;;5069329;28;20021;-68
2021/04/10 07:20:30;;;;;;;30.20;18.40;;;8.10;80.40;;;;;;5061990;28;20487;-69
2021/04/10 07:23:11;;;;;;;26.05;17.67;;;8.10;80.70;;;;;;5049728;28;20033;-71
2021/04/10 07:25:41;;;;;;;27.65;17.20;;;8.10;80.40;;;;;;5058068;28;20104;-69
2021/04/10 07:28:29;;;;;;;40.17;21.25;;;8.20;80.70;;;;;;5044311;28;20362;-68
2021/04/10 07:31:06;;;;;;;32.42;20.88;;;8.20;80.70;;;;;;5046558;28;20048;-67
2021/04/10 07:33:39;;;;;;;29.73;18.63;;;8.40;81.20;;;;;;5055455;28;20033;-68
2021/04/10 07:36:08;;;;;;;30.20;18.90;;;8.40;81.10;;;;;;5061778;28;20028;-69
2021/04/10 07:38:36;;;;;;;29.52;18.83;;;8.50;80.80;;;;;;5053615;28;20028;-69
2021/04/10 07:41:17;;;;;;;30.77;18.05;;;8.50;81.40;;;;;;5056403;28;20071;-70
2021/04/10 07:43:43;;;;;;;29.08;18.20;;;8.50;80.70;;;;;;5067843;28;20053;-69
2021/04/10 07:46:11;;;;;;;30.63;17.55;;;8.40;80.50;;;;;;5063863;28;20074;-69
2021/04/10 07:48:37;;;;;;;31.20;18.60;;;8.30;81.20;;;;;;5064576;28;20479;-71
2021/04/10 07:51:03;;;;;;;33.65;18.55;;;8.40;81.20;;;;;;5047929;28;20071;-68
2021/04/10 07:53:30;;;;;;;33.30;20.20;;;8.40;81.60;;;;;;5053910;28;20026;-68
2021/04/10 07:55:57;;;;;;;37.70;23.15;;;8.50;81.50;;;;;;5043218;28;20048;-68
2021/04/10 07:58:23;;;;;;;28.73;18.05;;;8.60;81.30;;;;;;5045457;28;20135;-68
2021/04/10 08:01:05;;;;;;;31.55;18.05;;;8.60;80.70;;;;;;5043084;28;20392;-67
2021/04/10 08:03:39;;;;;;;28.77;18.20;;;8.60;80.90;;;;;;5042628;28;20029;-71
2021/04/10 08:06:05;;;;;;;30.23;19.70;;;8.70;81.20;;;;;;5054648;28;20033;-69
2021/04/10 08:08:44;;;;;;;31.90;19.38;;;8.80;81.70;;;;;;5056921;28;20043;-67
2021/04/10 08:11:09;;;;;;;35.00;18.88;;;9.00;81.20;;;;;;5052599;28;20036;-68
2021/04/10 08:13:35;;;;;;;27.42;19.40;;;9.00;80.20;;;;;;5039937;28;20674;-72
2021/04/10 08:16:13;;;;;;;36.78;20.10;;;9.10;81.10;;;;;;5034216;28;20130;-69
2021/04/10 08:18:53;;;;;;;30.83;19.27;;;9.10;80.50;;;;;;5043558;28;20392;-69
2021/04/10 08:21:31;;;;;;;30.95;20.17;;;9.00;80.30;;;;;;5045822;28;20041;-68
2021/04/10 08:23:58;;;;;;;28.38;18.40;;;9.00;80.20;;;;;;5055612;28;20108;-68
2021/04/10 08:26:24;;;;;;;31.23;19.33;;;9.00;80.20;;;;;;5033616;28;20468;-69
2021/04/10 08:28:50;;;;;;;33.00;20.95;;;9.00;80.30;;;;;;5039899;28;20033;-69
2021/04/10 08:31:17;;;;;;;35.47;20.60;;;9.00;81.20;;;;;;5039896;28;20396;-68
2021/04/10 08:33:44;;;;;;;29.38;20.38;;;9.00;80.80;;;;;;5043150;28;20087;-68
2021/04/10 08:36:11;;;;;;;33.72;20.90;;;8.90;80.70;;;;;;5043393;28;20021;-68
2021/04/10 08:38:39;;;;;;;30.92;20.63;;;9.00;81.60;;;;;;5050210;28;20090;-68
2021/04/10 08:41:07;;;;;;;33.30;21.83;;;8.90;81.20;;;;;;5058109;28;20325;-68
2021/04/10 08:43:36;;;;;;;36.40;21.88;;;8.90;81.10;;;;;;5052699;28;20120;-68
2021/04/10 08:46:03;;;;;;;36.70;22.83;;;9.00;81.20;;;;;;5060548;28;20072;-74
2021/04/10 08:48:29;;;;;;;34.20;22.60;;;8.90;81.20;;;;;;5062027;28;20027;-69
2021/04/10 08:50:59;;;;;;;34.45;23.33;;;8.90;81.20;;;;;;5053835;28;20033;-68
2021/04/10 08:53:30;;;;;;;38.22;23.65;;;9.00;82.00;;;;;;5051500;28;20025;-68
2021/04/10 08:55:56;;;;;;;36.63;26.88;;;9.00;81.60;;;;;;5062842;28;20021;-68
2021/04/10 08:58:29;;;;;;;37.85;26.02;;;9.00;81.80;;;;;;5062648;28;20044;-69
2021/04/10 09:01:03;;;;;;;38.30;25.00;;;9.10;81.40;;;;;;5058303;28;20060;-68
2021/04/10 09:03:49;;;;;;;33.10;24.17;;;9.10;81.70;;;;;;5058745;28;20177;-69
2021/04/10 09:06:16;;;;;;;35.55;22.92;;;9.10;81.60;;;;;;5045159;28;20371;-68
2021/04/10 09:08:42;;;;;;;40.50;26.30;;;9.10;81.80;;;;;;5074626;28;20120;-70
2021/04/10 09:11:08;;;;;;;34.15;22.92;;;9.10;81.20;;;;;;5063975;28;20532;-74
2021/04/10 09:13:42;;;;;;;38.58;25.15;;;9.00;81.80;;;;;;5061124;28;20044;-68
2021/04/10 09:16:29;;;;;;;36.85;25.35;;;8.90;82.00;;;;;;5055172;28;20045;-71
2021/04/10 09:19:04;;;;;;;33.40;22.98;;;9.00;82.50;;;;;;5066782;28;20037;-68
2021/04/10 09:21:50;;;;;;;36.45;25.95;;;9.00;82.30;;;;;;5058083;28;20386;-67
2021/04/10 09:24:26;;;;;;;38.78;28.30;;;9.00;82.90;;;;;;5065793;28;20380;-67
2021/04/10 09:26:59;;;;;;;38.55;27.55;;;9.00;82.80;;;;;;5065837;28;20131;-68
2021/04/10 09:29:26;;;;;;;37.38;25.30;;;9.00;82.90;;;;;;5064711;28;20120;-68
2021/04/10 09:32:00;;;;;;;39.03;28.52;;;9.00;82.70;;;;;;5064195;28;20052;-68
2021/04/10 09:34:48;;;;;;;35.20;26.23;;;9.10;83.10;;;;;;5048324;28;20032;-69
2021/04/10 09:37:19;;;;;;;35.72;28.20;;;9.10;82.80;;;;;;5054249;28;20087;-68
2021/04/10 09:39:57;;;;;;;35.80;29.10;;;9.20;83.30;;;;;;5046806;28;20033;-68
2021/04/10 09:42:34;;;;;;;36.05;27.58;;;9.20;82.90;;;;;;5048806;28;20025;-68
2021/04/10 09:45:09;;;;;;;39.45;28.83;;;9.20;82.30;;;;;;5070376;28;20032;-68
2021/04/10 09:48:03;;;;;;;42.40;30.38;;;9.30;82.90;;;;;;5063047;28;20044;-68
2021/04/10 09:50:40;;;;;;;37.85;27.52;;;9.40;82.90;;;;;;5049423;28;20546;-68
2021/04/10 09:53:13;;;;;;;39.72;27.63;;;9.50;82.50;;;;;;5045269;28;20035;-72
2021/04/10 09:55:42;;;;;;;39.63;27.17;;;9.50;82.50;;;;;;5068316;28;20070;-69
2021/04/10 09:58:07;;;;;;;36.70;28.80;;;9.40;82.20;;;;;;5067900;28;20028;-69
2021/04/10 10:00:47;;;;;;;39.60;29.73;;;9.50;82.50;;;;;;5060160;28;20033;-68
2021/04/10 10:03:18;;;;;;;34.45;27.27;;;9.60;82.30;;;;;;5086327;28;20545;-68
2021/04/10 10:05:46;;;;;;;39.40;30.25;;;9.60;81.90;;;;;;5068823;28;20033;-68
2021/04/10 10:08:14;;;;;;;36.75;28.48;;;9.80;82.20;;;;;;5038012;28;20526;-68
2021/04/10 10:10:45;;;;;;;36.58;28.33;;;9.70;81.50;;;;;;5062624;28;20028;-68
2021/04/10 10:13:16;;;;;;;39.90;28.02;;;9.50;81.50;;;;;;5063348;28;20033;-68
2021/04/10 10:15:47;;;;;;;38.38;29.85;;;9.40;82.70;;;;;;5051420;28;20037;-68
2021/04/10 10:18:18;;;;;;;36.90;29.02;;;9.40;82.60;;;;;;5041990;28;20551;-69
2021/04/10 10:20:57;;;;;;;38.13;28.98;;;9.30;82.60;;;;;;5044410;28;20072;-68
2021/04/10 10:23:42;;;;;;;39.63;29.75;;;9.30;82.80;;;;;;5059425;28;20023;-68
2021/04/10 10:26:10;;;;;;;39.77;29.67;;;9.40;83.20;;;;;;5067232;28;20067;-70
2021/04/10 10:28:38;;;;;;;36.30;29.17;;;9.50;83.30;;;;;;5048592;28;20144;-69
2021/04/10 10:31:10;;;;;;;39.13;29.38;;;9.50;82.70;;;;;;5040122;28;20083;-68
2021/04/10 10:33:37;;;;;;;42.65;32.70;;;9.60;82.90;;;;;;5037059;28;20040;-68
2021/04/10 10:36:04;;;;;;;40.67;31.50;;;9.60;83.00;;;;;;5039369;28;20137;-68
2021/04/10 10:38:38;;;;;;;39.85;31.15;;;9.60;83.40;;;;;;5042611;28;20021;-68
2021/04/10 10:41:09;;;;;;;37.60;29.30;;;9.60;84.00;;;;;;5041320;28;20033;-68
2021/04/10 10:43:36;;;;;;;41.42;31.13;;;9.60;83.20;;;;;;5046059;28;20208;-69
2021/04/10 10:46:06;;;;;;;39.67;29.90;;;9.60;83.30;;;;;;5043208;28;20032;-68
2021/04/10 10:48:37;;;;;;;39.10;30.42;;;9.60;82.90;;;;;;5041594;28;20025;-69
2021/04/10 10:51:06;;;;;;;37.55;29.23;;;9.70;83.80;;;;;;5037003;28;20040;-68
2021/04/10 10:53:38;;;;;;;38.38;30.77;;;9.60;82.90;;;;;;5038360;28;20028;-69
2021/04/10 10:56:06;;;;;;;41.17;30.02;;;9.40;83.00;;;;;;5044915;28;20075;-69
2021/04/10 10:58:38;;;;;;;39.45;29.77;;;9.40;84.00;;;;;;5043728;28;20103;-69
2021/04/10 11:01:23;;;;;;;42.08;31.15;;;9.10;84.30;;;;;;5048924;28;20029;-69
2021/04/10 11:03:50;;;;;;;;;;;9.10;84.40;;;;;;5079541;28;20036;-68
2021/04/10 11:06:18;;;;;;;40.17;30.98;;;9.00;84.80;;;;;;5050197;28;19912;-68
2021/04/10 11:08:45;;;;;;;41.00;31.50;;;9.00;85.00;;;;;;5060931;28;20028;-69
2021/04/10 11:11:11;;;;;;;38.78;30.00;;;9.10;84.70;;;;;;5057363;28;20460;-68
2021/04/10 11:13:44;;;;;;;40.85;30.95;;;9.30;84.50;;;;;;5038121;28;20024;-68
2021/04/10 11:16:11;;;;;;;40.97;31.35;;;9.50;84.60;;;;;;5037638;28;20477;-71
2021/04/10 11:18:37;;;;;;;37.95;29.30;;;9.60;84.10;;;;;;5042286;28;20032;-70
2021/04/10 11:21:11;;;;;;;35.20;29.23;;;9.50;83.00;;;;;;5046577;28;20021;-68
2021/04/10 11:23:56;;;;;;;;;;;9.40;83.70;;;;;;5044441;28;20033;-67
2021/04/10 11:26:31;;;;;;;38.20;30.27;;;9.50;83.50;;;;;;5043043;28;20340;-68
2021/04/10 11:29:22;;;;;;;37.45;30.10;;;9.60;84.00;;;;;;5036776;28;20033;-68
2021/04/10 11:32:14;;;;;;;37.47;28.90;;;9.80;84.20;;;;;;5042143;28;20461;-70
2021/04/10 11:34:53;;;;;;;36.50;29.10;;;9.90;82.60;;;;;;5065843;28;20360;-68
2021/04/10 11:37:36;;;;;;;31.58;26.20;;;10.10;82.00;;;;;;5066169;28;20078;-68
2021/04/10 11:40:06;;;;;;;35.35;28.17;;;10.10;81.00;;;;;;5046482;28;20129;-68
2021/04/10 11:42:41;;;;;;;35.30;28.55;;;10.00;81.10;;;;;;5063525;28;20025;-68
2021/04/10 11:45:23;;;;;;;35.00;27.40;;;9.90;81.10;;;;;;5049063;28;20108;-68
2021/04/10 11:48:03;;;;;;;36.70;28.65;;;9.90;81.70;;;;;;5047076;28;20364;-68
2021/04/10 11:50:42;;;;;;;33.40;27.17;;;9.80;82.20;;;;;;5063459;28;20083;-67
2021/04/10 11:53:36;;;;;;;33.85;27.35;;;9.90;81.70;;;;;;5058919;28;20029;-71
2021/04/10 11:56:26;;;;;;;35.53;27.13;;;9.80;81.70;;;;;;5064645;28;20131;-68
2021/04/10 11:59:08;;;;;;;36.10;29.38;;;9.80;81.20;;;;;;5063652;28;20464;-68
2021/04/10 12:01:34;;;;;;;33.42;27.67;;;9.90;81.60;;;;;;5052299;28;20037;-68
2021/04/10 12:04:02;;;;;;;34.58;27.92;;;9.80;80.80;;;;;;5064845;28;20512;-68
2021/04/10 12:06:38;;;;;;;33.95;27.73;;;9.60;81.70;;;;;;5042545;28;20033;-68
2021/04/10 12:09:13;;;;;;;35.25;28.88;;;9.50;81.80;;;;;;5045694;28;20124;-68
2021/04/10 12:11:41;;;;;;;35.97;27.52;;;9.40;82.20;;;;;;5047475;28;20029;-70
2021/04/10 12:14:09;;;;;;;36.13;28.08;;;9.20;82.20;;;;;;5039581;28;20040;-69
2021/04/10 12:16:35;;;;;;;31.88;27.15;;;9.30;82.50;;;;;;5040705;28;20029;-69
2021/04/10 12:19:01;;;;;;;34.67;27.83;;;9.30;81.90;;;;;;5050807;28;20036;-72
2021/04/10 12:21:27;;;;;;;33.63;28.10;;;9.30;81.90;;;;;;5051915;28;20025;-74
2021/04/10 12:23:53;;;;;;;34.40;27.90;;;9.50;82.10;;;;;;5041078;28;20025;-68
2021/04/10 12:26:19;;;;;;;33.95;27.40;;;9.60;82.30;;;;;;5037573;28;20107;-68
2021/04/10 12:28:44;;;;;;;35.40;27.77;;;9.70;82.00;;;;;;5043100;28;20108;-71
2021/04/10 12:31:10;;;;;;;32.90;27.08;;;9.60;81.50;;;;;;5040396;28;20560;-72
2021/04/10 12:33:40;;;;;;;32.60;27.35;;;9.70;82.00;;;;;;5036258;28;20080;-71
2021/04/10 12:36:07;;;;;;;37.78;30.38;;;9.60;81.90;;;;;;5044351;28;20032;-70
2021/04/10 12:38:36;;;;;;;36.08;30.45;;;9.70;82.20;;;;;;5045880;28;20043;-69
2021/04/10 12:41:04;;;;;;;37.22;30.90;;;9.60;81.80;;;;;;5044387;28;20116;-68
2021/04/10 12:43:30;;;;;;;37.05;27.92;;;9.50;82.60;;;;;;5046304;28;20027;-68
2021/04/10 12:45:56;;;;;;;36.75;30.63;;;9.50;82.60;;;;;;5037065;28;20029;-68
2021/04/10 12:48:22;;;;;;;37.30;29.75;;;9.60;83.00;;;;;;5038346;28;20060;-69